createdAt,value
2022-08-19T00:00:44.663Z,91.70
2022-08-19T00:01:44.689Z,91.80
2022-08-19T00:02:50.155Z,91.70
2022-08-19T00:03:44.732Z,91.51
2022-08-19T00:04:44.780Z,91.70
2022-08-19T00:05:44.777Z,91.60
2022-08-19T00:06:44.803Z,91.80
2022-08-19T00:07:44.826Z,91.70
2022-08-19T00:08:44.843Z,91.80
2022-08-19T00:09:44.870Z,91.51
2022-08-19T00:10:44.891Z,91.60
2022-08-19T00:11:44.911Z,91.89
2022-08-19T00:12:47.155Z,91.80
2022-08-19T00:13:44.957Z,91.70
2022-08-19T00:14:44.985Z,91.80
2022-08-19T00:15:45.002Z,91.41
2022-08-19T00:16:45.025Z,91.41
2022-08-19T00:17:45.048Z,91.13
2022-08-19T00:18:45.077Z,90.93
2022-08-19T00:19:45.093Z,91.22
2022-08-19T00:20:45.117Z,91.89
2022-08-19T00:21:45.142Z,91.89
2022-08-19T00:22:45.162Z,91.89
2022-08-19T00:23:45.181Z,91.70
2022-08-19T00:24:50.689Z,91.80
2022-08-19T00:25:45.227Z,91.60
2022-08-19T00:26:45.250Z,91.70
2022-08-19T00:27:45.271Z,91.60
2022-08-19T00:28:45.297Z,91.70
2022-08-19T00:29:45.319Z,91.70
2022-08-19T00:30:45.343Z,91.70
2022-08-19T00:31:45.363Z,91.70
2022-08-19T00:32:45.388Z,91.22
2022-08-19T00:33:45.407Z,91.41
2022-08-19T00:34:45.432Z,91.51
2022-08-19T00:35:45.452Z,91.51
2022-08-19T00:36:45.479Z,91.22
2022-08-19T00:37:45.499Z,91.70
2022-08-19T00:38:45.524Z,91.89
2022-08-19T00:39:45.567Z,91.70
2022-08-19T00:40:45.567Z,91.89
2022-08-19T00:41:47.690Z,91.51
2022-08-19T00:42:45.611Z,91.89
2022-08-19T00:43:45.633Z,91.70
2022-08-19T00:44:45.655Z,91.51
2022-08-19T00:45:45.678Z,91.60
2022-08-19T00:46:45.702Z,91.51
2022-08-19T00:47:45.722Z,91.60
2022-08-19T00:48:45.745Z,91.89
2022-08-19T00:49:45.767Z,91.70
2022-08-19T00:50:51.647Z,91.51
2022-08-19T00:51:45.814Z,91.70
2022-08-19T00:52:45.837Z,91.60
2022-08-19T00:53:45.859Z,91.99
2022-08-19T00:54:47.814Z,91.99
2022-08-19T00:55:45.903Z,91.41
2022-08-19T00:56:45.930Z,91.70
2022-08-19T00:57:45.949Z,91.89
2022-08-19T00:58:45.970Z,91.31
2022-08-19T00:59:56.299Z,91.22
2022-08-19T01:00:46.015Z,91.03
2022-08-19T01:01:46.094Z,91.31
2022-08-19T01:02:46.057Z,91.22
2022-08-19T01:03:58.026Z,90.93
2022-08-19T01:04:46.106Z,91.13
2022-08-19T01:05:46.129Z,90.55
2022-08-19T01:06:46.150Z,90.64
2022-08-19T01:07:46.170Z,90.55
2022-08-19T01:08:46.193Z,90.55
2022-08-19T01:09:46.218Z,90.45
2022-08-19T01:10:46.238Z,90.26
2022-08-19T01:11:46.261Z,90.26
2022-08-19T01:12:46.295Z,90.06
2022-08-19T01:13:49.854Z,90.35
2022-08-19T01:14:46.328Z,90.06
2022-08-19T01:15:46.352Z,90.06
2022-08-19T01:16:46.396Z,89.97
2022-08-19T01:17:46.393Z,89.87
2022-08-19T01:18:46.416Z,90.06
2022-08-19T01:19:46.439Z,90.06
2022-08-19T01:20:46.461Z,90.06
2022-08-19T01:21:46.484Z,90.16
2022-08-19T01:22:46.628Z,89.68
2022-08-19T01:23:46.535Z,89.39
2022-08-19T01:24:49.968Z,89.78
2022-08-19T01:25:46.572Z,89.68
2022-08-19T01:26:46.691Z,89.49
2022-08-19T01:27:46.619Z,89.49
2022-08-19T01:28:46.638Z,89.58
2022-08-19T01:29:46.667Z,89.39
2022-08-19T01:30:51.067Z,89.58
2022-08-19T01:31:46.716Z,89.78
2022-08-19T01:32:46.744Z,89.87
2022-08-19T01:33:46.753Z,89.97
2022-08-19T01:34:46.775Z,89.58
2022-08-19T01:35:46.798Z,89.49
2022-08-19T01:36:46.818Z,89.58
2022-08-19T01:37:46.841Z,89.87
2022-08-19T01:38:46.863Z,89.29
2022-08-19T01:39:46.939Z,89.10
2022-08-19T01:40:46.908Z,88.81
2022-08-19T01:41:46.933Z,88.71
2022-08-19T01:42:47.000Z,88.43
2022-08-19T01:44:13.644Z,88.53
2022-08-19T01:44:46.997Z,88.24
2022-08-19T01:45:47.019Z,87.76
2022-08-19T01:46:47.042Z,87.76
2022-08-19T01:47:51.678Z,87.37
2022-08-19T01:48:47.088Z,87.08
2022-08-19T01:49:47.110Z,86.51
2022-08-19T01:50:47.130Z,85.83
2022-08-19T01:51:47.152Z,85.35
2022-08-19T01:52:47.205Z,84.77
2022-08-19T01:53:47.198Z,84.29
2022-08-19T01:54:47.221Z,82.94
2022-08-19T01:55:47.243Z,82.17
2022-08-19T01:56:47.263Z,80.63
2022-08-19T01:57:47.288Z,79.58
2022-08-19T01:58:47.310Z,78.81
2022-08-19T01:59:47.329Z,77.65
2022-08-19T02:00:47.351Z,77.36
2022-08-19T02:01:47.398Z,76.59
2022-08-19T02:02:47.476Z,75.54
2022-08-19T02:03:47.418Z,75.34
2022-08-19T02:04:47.440Z,74.48
2022-08-19T02:05:47.463Z,74.09
2022-08-19T02:06:47.485Z,73.42
2022-08-19T02:07:47.506Z,73.61
2022-08-19T02:08:47.531Z,73.03
2022-08-19T02:09:47.552Z,72.94
2022-08-19T02:10:47.573Z,72.74
2022-08-19T02:11:47.595Z,71.84
2022-08-19T02:12:47.702Z,72.32
2022-08-19T02:13:47.638Z,71.84
2022-08-19T02:14:47.660Z,71.88
2022-08-19T02:15:47.684Z,71.26
2022-08-19T02:16:47.703Z,71.46
2022-08-19T02:17:47.727Z,71.59
2022-08-19T02:18:47.747Z,71.49
2022-08-19T02:19:47.769Z,71.69
2022-08-19T02:20:47.793Z,71.55
2022-08-19T02:21:47.813Z,71.36
2022-08-19T02:22:47.862Z,70.78
2022-08-19T02:23:47.856Z,69.63
2022-08-19T02:24:47.876Z,68.96
2022-08-19T02:25:47.898Z,68.38
2022-08-19T02:26:47.921Z,68.48
2022-08-19T02:27:47.942Z,68.09
2022-08-19T02:28:47.965Z,68.29
2022-08-19T02:29:47.987Z,68.96
2022-08-19T02:30:48.015Z,69.82
2022-08-19T02:31:48.029Z,69.82
2022-08-19T02:32:48.054Z,70.21
2022-08-19T02:33:48.075Z,70.21
2022-08-19T02:34:48.099Z,70.88
2022-08-19T02:35:48.118Z,70.78
2022-08-19T02:36:51.759Z,71.17
2022-08-19T02:37:48.162Z,71.26
2022-08-19T02:38:54.734Z,71.55
2022-08-19T02:39:48.213Z,71.75
2022-08-19T02:40:48.227Z,71.55
2022-08-19T02:41:48.274Z,71.71
2022-08-19T02:42:48.312Z,71.46
2022-08-19T02:44:26.355Z,71.61
2022-08-19T02:44:48.312Z,71.75
2022-08-19T02:45:48.335Z,71.65
2022-08-19T02:46:48.356Z,71.46
2022-08-19T02:47:48.378Z,71.55
2022-08-19T02:48:48.401Z,71.17
2022-08-19T02:49:48.421Z,71.14
2022-08-19T02:50:53.310Z,71.26
2022-08-19T02:51:48.464Z,71.23
2022-08-19T02:52:48.551Z,70.65
2022-08-19T02:53:48.507Z,71.23
2022-08-19T02:54:48.529Z,71.23
2022-08-19T02:55:48.551Z,71.04
2022-08-19T02:56:48.573Z,71.23
2022-08-19T02:57:48.594Z,71.52
2022-08-19T02:58:48.619Z,71.52
2022-08-19T02:59:48.639Z,70.56
2022-08-19T03:00:48.658Z,69.89
2022-08-19T03:01:48.681Z,69.69
2022-08-19T03:02:48.776Z,69.50
2022-08-19T03:03:48.723Z,69.02
2022-08-19T03:04:48.746Z,68.73
2022-08-19T03:05:56.760Z,68.73
2022-08-19T03:06:48.790Z,68.73
2022-08-19T03:07:48.810Z,68.25
2022-08-19T03:08:48.833Z,68.15
2022-08-19T03:09:48.857Z,68.25
2022-08-19T03:10:48.875Z,67.86
2022-08-19T03:11:48.897Z,67.38
2022-08-19T03:12:48.956Z,67.29
2022-08-19T03:13:48.941Z,67.19
2022-08-19T03:14:48.968Z,67.29
2022-08-19T03:15:48.995Z,66.71
2022-08-19T03:16:49.006Z,66.91
2022-08-19T03:17:49.028Z,66.81
2022-08-19T03:18:49.049Z,66.91
2022-08-19T03:19:49.070Z,66.91
2022-08-19T03:20:49.101Z,66.52
2022-08-19T03:21:49.117Z,66.52
2022-08-19T03:22:49.204Z,66.61
2022-08-19T03:23:49.161Z,66.91
2022-08-19T03:24:49.179Z,66.23
2022-08-19T03:26:03.267Z,66.33
2022-08-19T03:26:49.224Z,66.42
2022-08-19T03:27:49.244Z,66.52
2022-08-19T03:28:51.048Z,66.23
2022-08-19T03:29:49.289Z,66.52
2022-08-19T03:30:49.313Z,66.14
2022-08-19T03:31:52.704Z,66.04
2022-08-19T03:32:51.397Z,66.42
2022-08-19T03:33:49.375Z,66.04
2022-08-19T03:34:49.397Z,66.23
2022-08-19T03:35:49.417Z,66.04
2022-08-19T03:36:49.464Z,66.14
2022-08-19T03:37:49.468Z,65.75
2022-08-19T03:38:49.483Z,65.75
2022-08-19T03:39:49.544Z,65.66
2022-08-19T03:40:49.527Z,65.17
2022-08-19T03:41:49.549Z,65.66
2022-08-19T03:42:49.701Z,65.66
2022-08-19T03:43:49.592Z,65.56
2022-08-19T03:44:49.613Z,65.08
2022-08-19T03:45:49.634Z,65.17
2022-08-19T03:46:49.658Z,65.08
2022-08-19T03:47:49.678Z,65.08
2022-08-19T03:48:49.700Z,64.79
2022-08-19T03:49:49.725Z,64.79
2022-08-19T03:50:49.749Z,64.89
2022-08-19T03:51:49.765Z,64.40
2022-08-19T03:52:49.809Z,64.60
2022-08-19T03:53:49.809Z,64.02
2022-08-19T03:54:49.831Z,64.50
2022-08-19T03:55:49.852Z,64.40
2022-08-19T03:56:49.873Z,64.40
2022-08-19T03:57:49.902Z,64.31
2022-08-19T03:58:49.918Z,63.83
2022-08-19T03:59:49.938Z,64.02
2022-08-19T04:00:50.037Z,63.45
2022-08-19T04:01:49.982Z,63.64
2022-08-19T04:02:58.110Z,63.45
2022-08-19T04:03:50.028Z,63.45
2022-08-19T04:04:50.049Z,63.54
2022-08-19T04:05:50.068Z,63.15
2022-08-19T04:06:50.095Z,63.45
2022-08-19T04:07:50.116Z,63.64
2022-08-19T04:08:50.135Z,62.68
2022-08-19T04:09:50.158Z,63.15
2022-08-19T04:10:50.201Z,62.58
2022-08-19T04:11:50.204Z,62.41
2022-08-19T04:12:50.226Z,62.58
2022-08-19T04:13:50.252Z,62.58
2022-08-19T04:14:50.266Z,62.38
2022-08-19T04:15:50.288Z,62.29
2022-08-19T04:16:50.308Z,62.03
2022-08-19T04:17:50.335Z,61.91
2022-08-19T04:18:50.356Z,62.13
2022-08-19T04:19:50.374Z,62.29
2022-08-19T04:20:50.398Z,62.19
2022-08-19T04:21:50.420Z,62.29
2022-08-19T04:22:50.441Z,62.19
2022-08-19T04:23:50.462Z,62.19
2022-08-19T04:24:50.485Z,62.29
2022-08-19T04:25:50.509Z,62.48
2022-08-19T04:26:50.528Z,62.19
2022-08-19T04:27:50.548Z,62.29
2022-08-19T04:28:50.573Z,61.81
2022-08-19T04:29:50.594Z,61.81
2022-08-19T04:30:50.615Z,61.81
2022-08-19T04:31:50.665Z,61.74
2022-08-19T04:32:50.659Z,61.61
2022-08-19T04:33:50.685Z,62.03
2022-08-19T04:35:03.007Z,61.84
2022-08-19T04:35:50.723Z,61.61
2022-08-19T04:36:50.746Z,61.65
2022-08-19T04:37:50.772Z,61.84
2022-08-19T04:38:50.788Z,61.36
2022-08-19T04:39:50.831Z,61.33
2022-08-19T04:40:50.834Z,61.23
2022-08-19T04:41:50.855Z,61.74
2022-08-19T04:42:50.878Z,62.03
2022-08-19T04:43:50.899Z,62.00
2022-08-19T04:44:50.921Z,61.94
2022-08-19T04:45:50.946Z,61.74
2022-08-19T04:46:51.851Z,61.61
2022-08-19T04:47:58.688Z,61.74
2022-08-19T04:48:51.009Z,61.33
2022-08-19T04:49:51.030Z,61.33
2022-08-19T04:50:51.053Z,61.23
2022-08-19T04:51:51.075Z,61.46
2022-08-19T04:52:51.096Z,60.97
2022-08-19T04:53:51.119Z,61.26
2022-08-19T04:54:51.139Z,60.88
2022-08-19T04:55:51.162Z,61.07
2022-08-19T04:56:51.183Z,61.07
2022-08-19T04:57:51.205Z,60.59
2022-08-19T04:58:51.229Z,60.39
2022-08-19T04:59:51.254Z,60.59
2022-08-19T05:00:51.319Z,60.59
2022-08-19T05:01:51.297Z,60.01
2022-08-19T05:02:51.327Z,59.92
2022-08-19T05:03:51.340Z,59.82
2022-08-19T05:04:51.360Z,60.01
2022-08-19T05:05:51.387Z,60.69
2022-08-19T05:06:51.406Z,60.49
2022-08-19T05:07:51.429Z,60.30
2022-08-19T05:08:51.449Z,60.21
2022-08-19T05:09:58.663Z,60.59
2022-08-19T05:10:51.495Z,60.49
2022-08-19T05:11:51.517Z,60.59
2022-08-19T05:12:51.671Z,60.49
2022-08-19T05:13:51.563Z,60.39
2022-08-19T05:14:51.586Z,61.10
2022-08-19T05:15:51.609Z,60.78
2022-08-19T05:17:02.429Z,60.88
2022-08-19T05:17:51.653Z,60.78
2022-08-19T05:18:51.675Z,60.59
2022-08-19T05:19:51.695Z,60.59
2022-08-19T05:20:51.719Z,60.30
2022-08-19T05:21:51.743Z,60.69
2022-08-19T05:22:51.910Z,60.42
2022-08-19T05:23:51.788Z,60.04
2022-08-19T05:25:11.689Z,60.72
2022-08-19T05:25:51.831Z,60.42
2022-08-19T05:26:51.857Z,60.42
2022-08-19T05:27:51.873Z,60.81
2022-08-19T05:28:54.589Z,60.62
2022-08-19T05:29:51.924Z,60.14
2022-08-19T05:30:51.976Z,59.94
2022-08-19T05:31:51.968Z,60.04
2022-08-19T05:32:52.084Z,60.42
2022-08-19T05:33:52.011Z,60.62
2022-08-19T05:34:52.036Z,60.62
2022-08-19T05:35:52.059Z,60.81
2022-08-19T05:36:52.084Z,61.10
2022-08-19T05:37:54.949Z,61.19
2022-08-19T05:38:52.133Z,62.16
2022-08-19T05:39:52.176Z,62.35
2022-08-19T05:40:52.170Z,61.77
2022-08-19T05:41:52.209Z,62.54
2022-08-19T05:42:55.385Z,62.35
2022-08-19T05:43:52.239Z,62.26
2022-08-19T05:44:52.263Z,62.35
2022-08-19T05:45:52.291Z,62.67
2022-08-19T05:46:52.309Z,62.45
2022-08-19T05:47:52.332Z,62.54
2022-08-19T05:48:52.357Z,63.51
2022-08-19T05:49:52.380Z,63.34
2022-08-19T05:50:52.401Z,62.87
2022-08-19T05:51:52.424Z,62.77
2022-08-19T05:52:52.543Z,62.38
2022-08-19T05:53:52.471Z,62.38
2022-08-19T05:54:52.493Z,62.00
2022-08-19T05:55:52.517Z,62.00
2022-08-19T05:56:52.541Z,61.80
2022-08-19T05:57:52.563Z,61.90
2022-08-19T05:58:52.588Z,61.71
2022-08-19T05:59:53.112Z,61.80
2022-08-19T06:00:52.633Z,62.00
2022-08-19T06:01:52.663Z,61.80
2022-08-19T06:02:52.976Z,61.52
2022-08-19T06:03:52.712Z,61.32
2022-08-19T06:04:52.726Z,61.16
2022-08-19T06:05:52.750Z,61.16
2022-08-19T06:06:52.773Z,61.16
2022-08-19T06:07:52.965Z,62.03
2022-08-19T06:08:52.818Z,64.05
2022-08-19T06:10:00.403Z,64.63
2022-08-19T06:10:52.867Z,64.25
2022-08-19T06:11:55.801Z,64.63
2022-08-19T06:12:52.913Z,64.25
2022-08-19T06:13:59.457Z,63.57
2022-08-19T06:15:01.132Z,63.57
2022-08-19T06:15:52.984Z,63.18
2022-08-19T06:16:53.007Z,62.60
2022-08-19T06:17:53.168Z,64.15
2022-08-19T06:18:53.057Z,63.95
2022-08-19T06:19:53.080Z,64.05
2022-08-19T06:20:55.857Z,63.85
2022-08-19T06:21:53.125Z,63.28
2022-08-19T06:22:53.149Z,64.15
2022-08-19T06:23:53.171Z,63.85
2022-08-19T06:24:53.194Z,64.53
2022-08-19T06:25:53.219Z,66.07
2022-08-19T06:26:54.847Z,65.59
2022-08-19T06:28:13.885Z,66.27
2022-08-19T06:28:53.289Z,65.98
2022-08-19T06:29:53.315Z,65.11
2022-08-19T06:30:53.337Z,64.82
2022-08-19T06:31:53.362Z,64.43
2022-08-19T06:32:53.386Z,64.25
2022-08-19T06:33:53.408Z,64.08
2022-08-19T06:34:53.434Z,64.82
2022-08-19T06:35:53.457Z,65.40
2022-08-19T06:36:53.482Z,64.56
2022-08-19T06:37:53.514Z,64.37
2022-08-19T06:38:53.531Z,65.14
2022-08-19T06:39:53.618Z,66.59
2022-08-19T06:40:53.580Z,67.46
2022-08-19T06:41:55.560Z,67.16
2022-08-19T06:42:54.786Z,67.74
2022-08-19T06:43:54.147Z,70.25
2022-08-19T06:44:53.801Z,70.92
2022-08-19T06:45:53.870Z,70.92
2022-08-19T06:46:54.629Z,70.73
2022-08-19T06:47:53.740Z,70.15
2022-08-19T06:48:53.766Z,69.38
2022-08-19T06:49:53.789Z,68.71
2022-08-19T06:50:53.812Z,68.90
2022-08-19T06:51:53.836Z,68.90
2022-08-19T06:52:53.987Z,68.52
2022-08-19T06:53:53.888Z,67.16
2022-08-19T06:54:56.504Z,66.97
2022-08-19T06:55:53.932Z,66.59
2022-08-19T06:56:53.957Z,66.30
2022-08-19T06:57:54.238Z,65.91
2022-08-19T06:58:54.005Z,65.53
2022-08-19T06:59:54.025Z,65.53
2022-08-19T07:00:54.061Z,65.14
2022-08-19T07:01:54.078Z,64.66
2022-08-19T07:02:59.400Z,64.76
2022-08-19T07:03:54.120Z,64.66
2022-08-19T07:04:54.162Z,64.76
2022-08-19T07:05:54.168Z,65.14
2022-08-19T07:06:54.989Z,65.05
2022-08-19T07:07:54.213Z,66.20
2022-08-19T07:08:54.240Z,66.88
2022-08-19T07:09:58.996Z,67.26
2022-08-19T07:10:54.286Z,66.97
2022-08-19T07:11:54.309Z,66.78
2022-08-19T07:12:54.572Z,67.20
2022-08-19T07:13:54.356Z,67.20
2022-08-19T07:14:54.586Z,67.00
2022-08-19T07:15:54.404Z,65.75
2022-08-19T07:16:54.429Z,65.17
2022-08-19T07:17:54.455Z,65.27
2022-08-19T07:18:54.478Z,64.69
2022-08-19T07:19:54.775Z,64.40
2022-08-19T07:20:54.527Z,64.21
2022-08-19T07:21:54.549Z,64.40
2022-08-19T07:22:54.686Z,64.31
2022-08-19T07:23:54.599Z,65.37
2022-08-19T07:24:54.621Z,65.78
2022-08-19T07:25:54.695Z,65.40
2022-08-19T07:26:54.672Z,65.50
2022-08-19T07:27:54.720Z,65.01
2022-08-19T07:28:54.720Z,67.33
2022-08-19T07:29:57.326Z,69.26
2022-08-19T07:30:54.769Z,70.13
2022-08-19T07:31:54.804Z,68.97
2022-08-19T07:32:54.819Z,68.19
2022-08-19T07:33:54.852Z,67.43
2022-08-19T07:34:54.868Z,67.27
2022-08-19T07:35:54.893Z,67.27
2022-08-19T07:36:54.914Z,66.88
2022-08-19T07:37:55.151Z,67.36
2022-08-19T07:38:54.965Z,66.97
2022-08-19T07:39:55.035Z,67.07
2022-08-19T07:40:55.015Z,67.85
2022-08-19T07:41:55.040Z,67.85
2022-08-19T07:42:55.065Z,67.75
2022-08-19T07:43:55.090Z,68.62
2022-08-19T07:44:55.112Z,67.94
2022-08-19T07:45:55.221Z,68.71
2022-08-19T07:46:55.166Z,69.49
2022-08-19T07:47:55.188Z,70.36
2022-08-19T07:48:55.212Z,70.36
2022-08-19T07:49:55.245Z,70.84
2022-08-19T07:50:55.263Z,72.86
2022-08-19T07:51:55.289Z,72.28
2022-08-19T07:52:55.313Z,71.80
2022-08-19T07:53:55.339Z,73.54
2022-08-19T07:54:55.361Z,72.86
2022-08-19T07:55:55.384Z,73.44
2022-08-19T07:56:55.410Z,73.35
2022-08-19T07:57:55.498Z,72.96
2022-08-19T07:59:55.491Z,73.44
2022-08-19T08:00:55.509Z,73.63
2022-08-19T08:01:55.569Z,73.73
2022-08-19T08:02:56.080Z,74.21
2022-08-19T08:03:55.582Z,73.63
2022-08-19T08:04:55.609Z,73.15
2022-08-19T08:05:55.632Z,73.25
2022-08-19T08:06:55.659Z,73.63
2022-08-19T08:07:55.684Z,73.73
2022-08-19T08:08:55.704Z,76.43
2022-08-19T08:10:57.142Z,74.60
2022-08-19T08:11:55.777Z,73.63
2022-08-19T08:13:08.953Z,72.48
2022-08-19T08:14:00.744Z,72.38
2022-08-19T08:14:56.091Z,72.77
2022-08-19T08:15:56.354Z,72.58
2022-08-19T08:16:55.900Z,72.28
2022-08-19T08:17:55.926Z,72.96
2022-08-19T08:18:55.955Z,73.06
2022-08-19T08:19:55.974Z,72.48
2022-08-19T08:20:56.002Z,72.28
2022-08-19T08:21:56.032Z,71.90
2022-08-19T08:22:56.049Z,72.96
2022-08-19T08:23:56.327Z,72.28
2022-08-19T08:24:56.130Z,72.09
2022-08-19T08:25:56.124Z,71.80
2022-08-19T08:26:57.731Z,73.25
2022-08-19T08:27:56.406Z,72.77
2022-08-19T08:28:56.197Z,72.28
2022-08-19T08:29:56.222Z,72.19
2022-08-19T08:30:56.244Z,72.19
2022-08-19T08:31:58.516Z,73.25
2022-08-19T08:32:56.295Z,74.83
2022-08-19T08:33:56.321Z,74.12
2022-08-19T08:34:56.362Z,73.35
2022-08-19T08:35:56.371Z,72.61
2022-08-19T08:36:56.394Z,72.52
2022-08-19T08:37:56.734Z,73.54
2022-08-19T08:39:56.528Z,73.54
2022-08-19T08:40:56.495Z,73.06
2022-08-19T08:41:56.520Z,73.67
2022-08-19T08:42:56.547Z,72.90
2022-08-19T08:43:56.572Z,73.25
2022-08-19T08:45:56.618Z,73.44
2022-08-19T08:46:56.645Z,74.02
2022-08-19T08:47:56.671Z,73.48
2022-08-19T08:48:56.692Z,73.58
2022-08-19T08:49:56.716Z,73.44
2022-08-19T08:50:56.742Z,73.25
2022-08-19T08:51:59.912Z,73.44
2022-08-19T08:52:56.792Z,73.09
2022-08-19T08:53:57.062Z,72.86
2022-08-19T08:54:56.849Z,73.54
2022-08-19T08:55:56.864Z,74.51
2022-08-19T08:56:56.888Z,76.05
2022-08-19T08:57:57.024Z,76.92
2022-08-19T08:58:56.939Z,77.88
2022-08-19T08:59:56.962Z,76.82
2022-08-19T09:00:56.987Z,76.34
2022-08-19T09:01:57.059Z,75.47
2022-08-19T09:02:57.035Z,76.15
2022-08-19T09:03:57.061Z,76.05
2022-08-19T09:04:57.085Z,75.09
2022-08-19T09:05:57.112Z,74.51
2022-08-19T09:06:57.135Z,74.51
2022-08-19T09:07:57.432Z,75.09
2022-08-19T09:08:57.183Z,75.18
2022-08-19T09:09:57.210Z,75.85
2022-08-19T09:10:57.234Z,76.63
2022-08-19T09:11:57.257Z,76.53
2022-08-19T09:12:57.280Z,77.11
2022-08-19T09:13:57.306Z,76.92
2022-08-19T09:14:57.331Z,77.21
2022-08-19T09:15:57.354Z,76.82
2022-08-19T09:16:57.379Z,76.34
2022-08-19T09:17:57.405Z,75.85
2022-08-19T09:18:57.430Z,75.95
2022-08-19T09:19:57.452Z,75.76
2022-08-19T09:20:57.478Z,75.27
2022-08-19T09:21:57.501Z,74.79
2022-08-19T09:22:57.526Z,74.60
2022-08-19T09:23:57.551Z,74.02
2022-08-19T09:24:57.576Z,74.21
2022-08-19T09:25:57.599Z,76.15
2022-08-19T09:26:57.625Z,76.63
2022-08-19T09:28:02.877Z,77.50
2022-08-19T09:28:57.673Z,77.01
2022-08-19T09:29:57.697Z,77.98
2022-08-19T09:30:57.722Z,77.88
2022-08-19T09:31:57.747Z,79.72
2022-08-19T09:32:57.771Z,79.43
2022-08-19T09:33:57.799Z,78.66
2022-08-19T09:34:57.821Z,78.17
2022-08-19T09:35:57.845Z,77.98
2022-08-19T09:36:57.871Z,77.98
2022-08-19T09:37:59.821Z,76.95
2022-08-19T09:38:57.922Z,76.86
2022-08-19T09:39:58.014Z,76.95
2022-08-19T09:40:57.984Z,76.37
2022-08-19T09:41:58.008Z,77.25
2022-08-19T09:42:58.019Z,78.11
2022-08-19T09:43:58.055Z,78.21
2022-08-19T09:44:58.068Z,79.85
2022-08-19T09:45:58.096Z,80.24
2022-08-19T09:46:58.119Z,81.30
2022-08-19T09:47:58.143Z,81.88
2022-08-19T09:48:58.169Z,82.36
2022-08-19T09:49:58.195Z,81.68
2022-08-19T09:50:58.221Z,81.63
2022-08-19T09:51:58.246Z,84.63
2022-08-19T09:52:58.271Z,83.85
2022-08-19T09:53:58.296Z,83.95
2022-08-19T09:54:58.320Z,83.08
2022-08-19T09:55:58.346Z,83.18
2022-08-19T09:56:58.376Z,83.95
2022-08-19T09:57:58.397Z,87.33
2022-08-19T09:58:58.423Z,86.65
2022-08-19T09:59:58.448Z,85.69
2022-08-19T10:00:58.529Z,85.69
2022-08-19T10:02:03.925Z,86.36
2022-08-19T10:02:58.523Z,85.59
2022-08-19T10:03:58.550Z,86.46
2022-08-19T10:04:58.573Z,88.68
2022-08-19T10:05:58.601Z,89.07
2022-08-19T10:06:58.626Z,88.78
2022-08-19T10:07:58.651Z,89.94
2022-08-19T10:08:58.676Z,90.33
2022-08-19T10:09:58.700Z,88.59
2022-08-19T10:10:59.036Z,91.19
2022-08-19T10:11:58.753Z,90.91
2022-08-19T10:12:58.782Z,90.52
2022-08-19T10:13:58.803Z,88.97
2022-08-19T10:14:58.830Z,89.36
2022-08-19T10:15:58.853Z,89.36
2022-08-19T10:16:59.348Z,90.13
2022-08-19T10:17:58.904Z,90.61
2022-08-19T10:18:59.288Z,90.91
2022-08-19T10:19:58.955Z,89.94
2022-08-19T10:20:58.978Z,89.94
2022-08-19T10:22:00.550Z,88.78
2022-08-19T10:22:59.031Z,89.07
2022-08-19T10:23:59.059Z,88.73
2022-08-19T10:24:59.082Z,89.59
2022-08-19T10:25:59.110Z,89.98
2022-08-19T10:26:59.642Z,90.56
2022-08-19T10:27:59.159Z,94.04
2022-08-19T10:28:59.186Z,90.95
2022-08-19T10:29:59.211Z,90.66
2022-08-19T10:30:59.238Z,89.40
2022-08-19T10:32:00.474Z,89.64
2022-08-19T10:32:59.288Z,88.48
2022-08-19T10:33:59.318Z,90.22
2022-08-19T10:34:59.341Z,90.26
2022-08-19T10:35:59.365Z,89.74
2022-08-19T10:37:00.901Z,89.39
2022-08-19T10:38:02.043Z,93.36
2022-08-19T10:38:59.448Z,93.36
2022-08-19T10:39:59.545Z,94.91
2022-08-19T10:40:59.507Z,96.94
2022-08-19T10:41:59.526Z,97.62
2022-08-19T10:42:59.552Z,95.20
2022-08-19T10:44:04.166Z,99.16
2022-08-19T10:44:59.604Z,97.91
2022-08-19T10:45:59.632Z,98.15
2022-08-19T10:46:59.662Z,98.83
2022-08-19T10:47:59.683Z,97.09
2022-08-19T10:48:59.711Z,97.67
2022-08-19T10:49:59.734Z,96.02
2022-08-19T10:50:59.764Z,97.67
2022-08-19T10:51:59.789Z,99.60
2022-08-19T10:52:59.815Z,98.93
2022-08-19T10:53:59.842Z,98.15
2022-08-19T10:54:59.869Z,97.96
2022-08-19T10:55:59.895Z,96.65
2022-08-19T10:56:59.928Z,98.10
2022-08-19T10:58:02.594Z,97.62
2022-08-19T10:58:59.970Z,97.91
2022-08-19T11:00:00.006Z,98.20
2022-08-19T11:01:00.125Z,98.10
2022-08-19T11:02:00.052Z,98.88
2022-08-19T11:03:00.074Z,98.10
2022-08-19T11:04:00.098Z,98.97
2022-08-19T11:05:04.838Z,97.81
2022-08-19T11:06:00.150Z,98.05
2022-08-19T11:07:00.178Z,99.21
2022-08-19T11:08:00.199Z,98.15
2022-08-19T11:09:00.224Z,97.67
2022-08-19T11:10:00.256Z,98.05
2022-08-19T11:11:00.301Z,97.57
2022-08-19T11:12:00.302Z,97.28
2022-08-19T11:13:00.326Z,97.77
2022-08-19T11:14:00.351Z,97.47
2022-08-19T11:15:00.375Z,98.44
2022-08-19T11:16:02.807Z,98.93
2022-08-19T11:17:00.425Z,97.96
2022-08-19T11:18:00.451Z,97.19
2022-08-19T11:19:00.479Z,96.80
2022-08-19T11:20:00.501Z,96.12
2022-08-19T11:21:00.523Z,96.51
2022-08-19T11:22:00.551Z,96.51
2022-08-19T11:23:00.577Z,96.12
2022-08-19T11:24:00.597Z,95.64
2022-08-19T11:25:00.623Z,96.31
2022-08-19T11:26:00.650Z,96.89
2022-08-19T11:27:00.677Z,96.03
2022-08-19T11:28:00.700Z,96.31
2022-08-19T11:29:00.727Z,96.41
2022-08-19T11:30:00.749Z,95.15
2022-08-19T11:31:00.774Z,96.22
2022-08-19T11:32:00.799Z,98.15
2022-08-19T11:33:00.823Z,97.67
2022-08-19T11:34:00.873Z,96.41
2022-08-19T11:35:00.872Z,96.89
2022-08-19T11:36:00.897Z,96.12
2022-08-19T11:37:00.923Z,96.51
2022-08-19T11:38:00.947Z,95.83
2022-08-19T11:39:00.972Z,96.12
2022-08-19T11:40:01.021Z,98.83
2022-08-19T11:41:01.027Z,97.38
2022-08-19T11:42:01.047Z,96.51
2022-08-19T11:43:01.075Z,96.12
2022-08-19T11:44:01.095Z,96.22
2022-08-19T11:45:01.121Z,97.28
2022-08-19T11:46:01.145Z,97.67
2022-08-19T11:47:01.171Z,97.19
2022-08-19T11:48:01.197Z,97.96
2022-08-19T11:49:01.221Z,97.86
2022-08-19T11:50:01.245Z,98.63
2022-08-19T11:51:01.270Z,98.44
2022-08-19T11:52:01.294Z,98.15
2022-08-19T11:53:01.318Z,98.05
2022-08-19T11:54:01.344Z,97.47
2022-08-19T11:55:01.367Z,97.96
2022-08-19T11:56:01.393Z,98.15
2022-08-19T11:57:01.419Z,98.15
2022-08-19T11:58:01.443Z,98.93
2022-08-19T11:59:01.468Z,98.93
2022-08-19T12:00:01.492Z,97.86
2022-08-19T12:01:01.518Z,97.96
2022-08-19T12:02:01.551Z,96.99
2022-08-19T12:03:01.569Z,97.19
2022-08-19T12:04:01.660Z,99.99
2022-08-19T12:05:01.617Z,99.99
2022-08-19T12:06:01.643Z,99.99
2022-08-19T12:07:01.667Z,99.99
2022-08-19T12:08:01.694Z,99.99
2022-08-19T12:09:01.714Z,99.60
2022-08-19T12:10:01.740Z,99.99
2022-08-19T12:11:01.766Z,99.99
2022-08-19T12:12:01.789Z,99.99
2022-08-19T12:13:01.815Z,99.99
2022-08-19T12:14:01.843Z,99.99
2022-08-19T12:15:01.866Z,99.99
2022-08-19T12:16:01.898Z,99.99
2022-08-19T12:17:01.914Z,99.99
2022-08-19T12:18:01.960Z,99.99
2022-08-19T12:19:01.964Z,99.99
2022-08-19T12:20:01.988Z,99.99
2022-08-19T12:21:02.012Z,99.79
2022-08-19T12:22:02.038Z,99.99
2022-08-19T12:23:02.063Z,99.99
2022-08-19T12:24:02.094Z,99.99
2022-08-19T12:25:02.150Z,99.99
2022-08-19T12:26:02.139Z,99.99
2022-08-19T12:27:02.944Z,99.79
2022-08-19T12:28:02.562Z,99.99
2022-08-19T12:29:02.211Z,99.79
2022-08-19T12:30:02.235Z,99.99
2022-08-19T12:31:02.259Z,99.99
2022-08-19T12:32:02.356Z,99.94
2022-08-19T12:33:02.309Z,99.36
2022-08-19T12:34:02.332Z,99.99
2022-08-19T12:35:02.356Z,99.99
2022-08-19T12:36:02.380Z,99.99
2022-08-19T12:37:02.409Z,99.99
2022-08-19T12:38:02.611Z,99.99
2022-08-19T12:39:02.460Z,99.99
2022-08-19T12:40:02.526Z,99.16
2022-08-19T12:41:02.504Z,99.50
2022-08-19T12:42:02.530Z,99.94
2022-08-19T12:43:02.554Z,99.99
2022-08-19T12:44:02.577Z,99.99
2022-08-19T12:45:02.600Z,99.99
2022-08-19T12:46:02.624Z,99.99
2022-08-19T12:47:02.652Z,99.99
2022-08-19T12:48:02.674Z,99.99
2022-08-19T12:49:12.183Z,99.99
2022-08-19T12:50:06.471Z,99.99
2022-08-19T12:51:02.750Z,99.99
2022-08-19T12:52:02.772Z,99.99
2022-08-19T12:53:02.806Z,99.99
2022-08-19T12:54:02.825Z,99.99
2022-08-19T12:55:02.851Z,99.99
2022-08-19T12:56:02.871Z,99.99
2022-08-19T12:57:02.896Z,99.99